Flight Track Log - Related Links

Times and Time Zones

All times are in EDT time to prevent confusion due to time zone crossing. See the SWA1377 flight status page for this flight to view local times or setup timezone preferences in your user account.

Time Position Orientation Groundspeed Altitude Reporting Facility
EDT Latitude Longitude Course Direction KTS MPH feet Rate Location/Type
Tue 10:29:04 AM 41.8156 -87.7608 90° East 172 198 2,600  Level Chicago Center
Tue 10:30:06 AM 41.8108 -87.6842 95° East 216 249 3,000 726 Climbing Chicago Center
Tue 10:31:08 AM 41.7942 -87.6006 105° East 223 257 4,100 2,016 Climbing Chicago Center
Tue 10:32:11 AM 41.7878 -87.4914 94° East 277 319 7,200 3,000 Climbing Chicago Center
Tue 10:33:12 AM 41.7797 -87.3722 95° East 313 360 10,300 3,295 Climbing Chicago Center
Tue 10:34:00 AM 41.7500 -87.0231 90° East  Level FlightAware Approximate
Tue 10:34:13 AM 41.7761 -87.2103 92° East 362 417 13,900  Level Chicago Center
Tue 10:35:15 AM 41.7931 -87.0611 81° East 403 464 17,600 3,242 Climbing Chicago Center
Tue 10:36:17 AM 41.8136 -86.9097 80° East 413 475 20,600 2,613 Climbing Chicago Center
Tue 10:37:19 AM 41.8375 -86.7494 79° East 437 503 23,000 2,468 Climbing Chicago Center
Tue 10:38:21 AM 41.8483 -86.5603 86° East 466 536 25,700 1,951 Climbing Chicago Center
Tue 10:39:22 AM 41.8500 -86.3814 89° East 478 550 27,000 1,317 Climbing Chicago Center
Tue 10:40:24 AM 41.8533 -86.2011 89° East 483 556 28,400 1,742 Climbing Chicago Center
Tue 10:41:26 AM 41.8575 -86.0200 88° East 485 558 30,600 2,226 Climbing Chicago Center
Tue 10:42:28 AM 41.8814 -85.8400 80° East 487 560 33,000 2,129 Climbing Chicago Center
Tue 10:43:30 AM 41.9050 -85.6611 80° East 484 557 35,000 976 Climbing Chicago Center
Tue 10:44:31 AM 41.9267 -85.4794 81° East 487 560 35,000 780 Level Chicago Center
Tue 10:45:33 AM 41.9486 -85.2911 81° East 503 579 36,600 1,650 Climbing Chicago Center
Tue 10:45:51 AM 41.9606 -85.2081 79° East 495 570 37,200 1,385 Climbing Cleveland Center
Tue 10:46:51 AM 41.9825 -85.0194 81° East 500 575 38,400 900 Climbing Cleveland Center
Tue 10:47:51 AM 42.0042 -84.8311 81° East 500 575 39,000 300 Climbing Cleveland Center
Tue 10:48:51 AM 42.0236 -84.6450 82° East 500 575 39,000  Level Cleveland Center
Tue 10:49:51 AM 42.0425 -84.4558 82° East 500 575 39,000  Level Cleveland Center
Tue 10:50:51 AM 42.0561 -84.3028 83° East 500 575 39,000  Level Cleveland Center
Tue 10:51:51 AM 42.0769 -84.1025 82° East 500 575 39,000  Level Cleveland Center
Tue 10:52:51 AM 42.0992 -83.9164 81° East 500 575 39,000  Level Cleveland Center
Tue 10:53:51 AM 42.1189 -83.7297 82° East 500 575 39,000  Level Cleveland Center
Tue 10:54:51 AM 42.1350 -83.5206 84° East 500 575 39,000 -650 Level Cleveland Center
Tue 10:55:51 AM 42.1606 -83.3339 79° East 506 582 37,700 -1,150 Descending Cleveland Center
Tue 10:56:51 AM 42.1753 -83.1386 84° East 506 582 36,700 -950 Descending Cleveland Center
Tue 10:57:51 AM 42.1961 -82.9486 82° East 506 582 35,800 -950 Descending Cleveland Center
Tue 10:58:51 AM 42.2144 -82.7614 82° East 506 582 34,800 -1,850 Descending Cleveland Center
Tue 10:59:51 AM 42.2594 -82.5808 71° East 488 562 32,100 -2,650 Descending Cleveland Center
Tue 11:00:51 AM 42.3228 -82.4086 64° Northeast 499 574 29,500 -2,250 Descending Cleveland Center
Tue 11:01:51 AM 42.3794 -82.2417 65° Northeast 499 574 27,600 -1,250 Descending Cleveland Center
Tue 11:02:51 AM 42.4211 -82.0936 69° East 479 551 27,000 -300 Descending Cleveland Center
Tue 11:03:51 AM 42.4275 -81.9194 87° East 461 531 27,000  Level Cleveland Center
Tue 11:04:51 AM 42.4358 -81.7225 87° East 467 537 27,000  Level Cleveland Center
Tue 11:05:51 AM 42.4394 -81.5511 88° East 461 531 27,000  Level Cleveland Center
Tue 11:06:51 AM 42.4469 -81.3794 87° East 453 521 27,000  Level Cleveland Center
Tue 11:07:51 AM 42.4503 -81.2022 88° East 463 533 27,000  Level Cleveland Center
Tue 11:08:51 AM 42.4553 -81.0306 88° East 458 527 27,000  Level Cleveland Center
Tue 11:09:51 AM 42.4619 -80.8589 87° East 458 527 27,000  Level Cleveland Center
Tue 11:10:51 AM 42.4644 -80.6817 89° East 463 533 27,000  Level Cleveland Center
Tue 11:11:51 AM 42.4686 -80.5072 88° East 462 532 27,000 -700 Level Cleveland Center
Tue 11:12:51 AM 42.4725 -80.3553 88° East 456 525 25,600 -2,200 Descending Cleveland Center
Tue 11:13:51 AM 42.4742 -80.1806 89° East 463 533 22,600 -2,650 Descending Cleveland Center
Tue 11:14:51 AM 42.4797 -80.0117 87° East 454 522 20,300 -2,150 Descending Cleveland Center
Tue 11:15:51 AM 42.4850 -79.8428 88° East 454 522 18,300 -2,000 Descending Cleveland Center
Tue 11:16:51 AM 42.4881 -79.6822 88° East 437 503 16,300 -2,000 Descending Cleveland Center
Tue 11:17:51 AM 42.5033 -79.5242 82° East 432 497 14,300 -1,550 Descending Cleveland Center
Tue 11:18:51 AM 42.5750 -79.4075 50° Northeast 395 455 13,200 -1,300 Descending Cleveland Center
Tue 11:19:51 AM 42.6492 -79.3017 46° Northeast 387 445 11,700 -1,100 Descending Cleveland Center
Tue 11:20:51 AM 42.7186 -79.1928 49° Northeast 376 433 11,000 -900 Descending Cleveland Center
Tue 11:21:51 AM 42.7800 -79.0925 50° Northeast 363 418 9,900 -1,200 Descending Cleveland Center
Tue 11:22:51 AM 42.8392 -78.9947 50° Northeast 341 392 8,600 -1,400 Descending Cleveland Center
Tue 11:23:51 AM 42.8981 -78.8969 51° Northeast 335 386 7,100 -1,500 Descending Cleveland Center
Tue 11:24:51 AM 42.9594 -78.8103 46° Northeast 322 371 5,600 -1,579 Descending Cleveland Center
Tue 11:25:07 AM 42.9833 -78.7833 40° Northeast 326 375 5,100 -868 Descending Buffalo TRACON
Tue 11:26:07 AM 43.0333 -78.7000 51° Northeast 265 305 4,500 -900 Descending Buffalo TRACON
Tue 11:27:07 AM 43.0167 -78.6333 109° East 179 206 3,300 -1,300 Descending Buffalo TRACON
Tue 11:28:07 AM 42.9833 -78.6667 216° Southwest 124 143 1,900 -1,053 Descending Buffalo TRACON
Tue 11:29:01 AM 42.9667 -78.7000 236° Southwest 108 124 1,300 -667 Descending Buffalo TRACON

Login

Don't have an account? Register now (free) for customized features, flight alerts, and more!